INFORMACIÓN METAR y TAF
METAR FOR LEBB
ADDS - METARS form results

(0654 UTC 24 June 2017)
Data provider http://aviationweather.gov/adds/metars/
 
METAR text: LEBB 240630Z 00000KT 5000 BR FEW007 BKN013 BKN020 19/18 Q1023 TEMPO 4000 BR BKN014
Conditions at: LEBB observed 0630 UTC 24 June 2017
Temperature: 19.0°C (66°F)
Dewpoint: 18.0°C (64°F) [RH = 94%]
Pressure (altimeter): 30.21 inches Hg (1023.0 mb)
Winds: calm
Visibility: 3 miles (5 km)
Ceiling: 1300 feet AGL
Clouds: few clouds at 700 feet AGL
broken clouds at 1300 feet AGL
broken clouds at 2000 feet AGL
Weather: BR  (mist)

METAR text: LEBB 240622Z 00000KT 5000 BR FEW007 BKN013 BKN020 18/18 Q1023 TEMPO 2000 -RADZ BKN009
Conditions at: LEBB observed 0622 UTC 24 June 2017
Temperature: 18.0°C (64°F)
Dewpoint: 18.0°C (64°F) [RH = 100%]
Pressure (altimeter): 30.21 inches Hg (1023.0 mb)
Winds: calm
Visibility: 3 miles (5 km)
Ceiling: 1300 feet AGL
Clouds: few clouds at 700 feet AGL
broken clouds at 1300 feet AGL
broken clouds at 2000 feet AGL
Weather: BR  (mist)

METAR text: LEBB 240611Z 00000KT 4500 BR FEW007 BKN013 BKN020 18/18 Q1023 TEMPO 2000 -RADZ BKN009
Conditions at: LEBB observed 0611 UTC 24 June 2017
Temperature: 18.0°C (64°F)
Dewpoint: 18.0°C (64°F) [RH = 100%]
Pressure (altimeter): 30.21 inches Hg (1023.0 mb)
Winds: calm
Visibility: 2.80 miles (4.51 km)
Ceiling: 1300 feet AGL
Clouds: few clouds at 700 feet AGL
broken clouds at 1300 feet AGL
broken clouds at 2000 feet AGL
Weather: BR  (mist)

METAR text: LEBB 240600Z 14001KT 3000 BR -DZ FEW005 BKN016 BKN020 18/18 Q1023 TEMPO 2000 -RADZ BKN009
Conditions at: LEBB observed 0600 UTC 24 June 2017
Temperature: 18.0°C (64°F)
Dewpoint: 18.0°C (64°F) [RH = 100%]
Pressure (altimeter): 30.21 inches Hg (1023.0 mb)
Winds: from the SE (140 degrees) at 1 MPH (1 knots; 0.5 m/s)
Visibility: 1.86 miles (2.99 km)
Ceiling: 1600 feet AGL
Clouds: few clouds at 500 feet AGL
broken clouds at 1600 feet AGL
broken clouds at 2000 feet AGL
Weather: BR -DZ  (mist, light drizzle)

Forecast for: LEBB
Text: TAF LEBB 240500Z 2406/2506 VRB04KT 9000 SCT018 BKN030 TX23/2414Z TN15/2506Z
Forecast period: 0600 UTC 24 June 2017 to 0600 UTC 25 June 2017
Forecast type: FROM: standard forecast or significant change
Winds: variable direction winds at 5 MPH (4 knots; 2.1 m/s)
Visibility: 6 miles (9 km)
Ceiling: 3000 feet AGL
Clouds: scattered clouds at 1800 feet AGL
broken clouds at 3000 feet AGL
Weather: no significant weather forecast for this period
Text: TEMPO 2406/2410 4000 -DZ BR BKN014
Forecast period: 0600 to 1000 UTC 24 June 2017
Forecast type: TEMPORARY: The following changes expected for less than half the time period
Visibility: 2.49 miles (4.01 km)
Ceiling: 1400 feet AGL
Clouds: broken clouds at 1400 feet AGL
Weather: -DZ BR  (light drizzle, mist)
Text: PROB30
Forecast period: 0600 to 0900 UTC 24 June 2017
Forecast type: TEMPORARY: The following changes expected for less than half the time period
Visibility: 1.55 miles (2.49 km)
Ceiling: 900 feet AGL
Clouds: broken clouds at 900 feet AGL
Weather: -RA -DZ BR  (light rain, light drizzle, mist)
Text: TEMPO 2406/2409 2500 -RADZ BR BKN009
Forecast period: 1000 to 1600 UTC 24 June 2017
Forecast type: TEMPORARY: The following changes expected for less than half the time period
Winds: from the N (360 degrees) at 12 MPH (10 knots; 5.2 m/s)
Ceiling: 1400 feet AGL
Clouds: broken clouds at 1400 feet AGL
Weather: no significant weather forecast for this period

 MAPA DE AEROPUERTO

 INFORMACIÓN DE PISTA
Pista 10 Longitud 6562 ft Ancho 148 ft
Elevación 116 ft Umbral desplazado 0 ft Rumbo de pista 97
Pista 28 Longitud 6562 ft Ancho 148 ft
Elevación 129 ft Umbral desplazado 0 ft Rumbo de pista 277
Pista 12 Longitud 8530 ft Ancho 148 ft
Elevación 119 ft Umbral desplazado 0 ft Rumbo de pista 117
Pista 30 Longitud 8530 ft Ancho 148 ft
Elevación 128 ft Umbral desplazado 1509 ft Rumbo de pista 297

 FRECUANCIAS DEL AEROPUERTO
Tipo APP Nombre APP Frecuencia 120.7 MHZ
Tipo ATIS Nombre ATIS Frecuencia 118.825 MHZ
Tipo GND Nombre GND Frecuencia 121.7 MHZ
Tipo TWR Nombre TWR Frecuencia 118.5 MHZ

 RADIO AYUDAS DEL AEROPUERTO
Tipo VOR-DME Nombre Bilbao Frecuencia 115900 KHZ



Nuestro objetivo, educar a través de la simulación aérea y las redes de vuelo on line la cultura aeronáutica y el conocimiento técnico y operativo de volar un avión comercial; Ayudar en la formación de personas y o profesionales de aquellos que desea llegar a ser piloto privado o de líneas aéreas, militar, controlador aéreo, o conocer el mundo del tráfico aéreo, la simulación aérea, el vuelo, y todo lo referente con la aeronáutica.

Copyright 2006 - 2017
Clickair-Va desde 2006 son marcas registradas con permiso de Vueling S.A
Patrocinado por ACAE
Los foros de Clickair VA son foros privados para los miembros de la VA

Powered by Virtual Airlines Manager